ΕΜΥ, Εθνική Μετεωρολογική Υπηρεσία - Δελτία Καιρού, Προγνώσεις

ΑΕΡΟΝΑΥΤΙΛΙΑ

GREEK AIRPORTS CODES

LGMT 040950Z 19011KT 160V240 7000 FEW020TCU SCT025 15/12 Q1011=

EUROPEAN AIRPORTS CODES

LOWW 040950Z 14012KT 9999 FEW015 BKN050 01/M02 Q1005 NOSIG=